Time;durP1;ratioP1;P1;durP2;ratioP2;P2;SDS_P1;SDS_P2;PMS_P1;PMS_P2;Temp;Humidity;BMP_temperature;BMP_pressure;BME280_temperature;BME280_humidity;BME280_pressure;Samples;Min_cycle;Max_cycle;Signal;HPM_P1;HPM_P2
2023/02/02 00:00:12;;;;;;;6.43;2.70;;;;;;;;;;5061669;28;20130;-82
2023/02/02 00:02:37;;;;;;;7.63;2.53;;;;;;;;;;5066798;28;20346;-81
2023/02/02 00:05:02;;;;;;;6.30;2.30;;;;;;;;;;5067303;28;20059;-81
2023/02/02 00:07:28;;;;;;;8.20;2.57;;;;;;;;;;5072092;28;20037;-82
2023/02/02 00:09:53;;;;;;;9.13;2.63;;;;;;;;;;5065762;28;20287;-81
2023/02/02 00:12:18;;;;;;;9.90;3.07;;;;;;;6.38;nan;101095.81;5073673;28;20071;-81
2023/02/02 00:14:43;;;;;;;12.15;3.33;;;;;;;6.51;nan;101099.25;5064941;28;20035;-81
2023/02/02 00:17:09;;;;;;;8.52;2.75;;;;;;;6.52;nan;101100.91;5067308;28;20032;-81
2023/02/02 00:19:35;;;;;;;11.85;2.90;;;;;;;6.54;nan;101098.19;5072564;28;20123;-82
2023/02/02 00:22:01;;;;;;;8.52;2.30;;;;;;;6.54;nan;101106.91;5071796;28;20079;-82
2023/02/02 00:24:26;;;;;;;6.80;2.25;;;;;;;6.57;nan;101109.28;5062771;28;20037;-81
2023/02/02 00:26:54;;;;;;;7.95;2.72;;;;;;;6.57;nan;101105.81;5069791;28;20033;-82
2023/02/02 00:29:22;;;;;;;7.28;2.92;;;;;;;6.56;nan;101115.50;5062175;28;20041;-82
2023/02/02 00:31:48;;;;;;;11.68;3.28;;;;;;;6.61;nan;101112.56;5069723;28;20048;-82
2023/02/02 00:34:14;;;;;;;8.10;2.53;;;;;;;6.60;nan;101110.84;5066509;28;20033;-82
2023/02/02 00:36:41;;;;;;;9.38;2.83;;;;;;;6.55;nan;101105.97;5060190;28;20126;-81
2023/02/02 00:39:08;;;;;;;9.07;2.70;;;;;;;6.57;nan;101114.53;5065146;28;20036;-82
2023/02/02 00:41:33;;;;;;;10.85;3.20;;;;;;;6.61;nan;101111.72;5061043;28;20071;-82
2023/02/02 00:46:42;;;;;;;10.65;2.85;;;;;;;6.65;nan;101107.91;5062442;28;20062;-81
2023/02/02 00:49:08;;;;;;;10.90;2.65;;;;;;;6.68;nan;101105.91;5063936;28;20037;-84
2023/02/02 00:51:35;;;;;;;9.25;3.22;;;;;;;6.74;nan;101104.59;5062949;28;20041;-82
2023/02/02 00:54:00;;;;;;;8.27;2.40;;;;;;;6.77;nan;101113.09;5069302;28;20037;-82
2023/02/02 00:56:25;;;;;;;11.18;2.75;;;;;;;6.78;nan;101111.31;5060674;28;20101;-82
2023/02/02 00:58:51;;;;;;;10.48;2.65;;;;;;;6.77;nan;101105.22;5060386;28;20033;-84
2023/02/02 01:01:35;;;;;;;9.38;2.80;;;;;;;6.81;nan;101105.81;5062603;28;20040;-82
2023/02/02 01:04:00;;;;;;;10.77;3.35;;;;;;;6.79;nan;101111.22;5060834;28;20038;-84
2023/02/02 01:06:25;;;;;;;8.95;2.75;;;;;;;6.77;nan;101105.22;5067062;28;20344;-81
2023/02/02 01:08:51;;;;;;;5.90;2.15;;;;;;;6.70;nan;101111.88;5070088;28;20035;-82
2023/02/02 01:11:16;;;;;;;6.30;2.53;;;;;;;6.70;nan;101103.16;5069188;28;20446;-82
2023/02/02 01:13:42;;;;;;;8.52;2.70;;;;;;;6.74;nan;101104.59;5067976;28;20123;-82
2023/02/02 01:16:08;;;;;;;8.35;2.38;;;;;;;6.77;nan;101104.41;5049277;28;20139;-83
2023/02/02 01:18:33;;;;;;;10.98;2.60;;;;;;;6.72;nan;101104.72;5067392;28;20115;-83
2023/02/02 01:21:11;;;;;;;17.02;3.83;;;;;;;6.75;nan;101106.28;5064922;28;20485;-81
2023/02/02 01:23:37;;;;;;;9.32;3.13;;;;;;;6.75;nan;101095.78;5060249;28;20562;-84
2023/02/02 01:26:06;;;;;;;7.65;2.60;;;;;;;6.68;nan;101103.25;5059382;28;20055;-82
2023/02/02 01:28:32;;;;;;;11.30;3.03;;;;;;;6.59;nan;101117.91;5056345;28;20034;-82
2023/02/02 01:30:57;;;;;;;9.25;2.72;;;;;;;6.48;nan;101111.75;5058593;28;20021;-82
2023/02/02 01:33:24;;;;;;;8.85;2.78;;;;;;;6.41;nan;101105.25;5066276;28;20036;-82
2023/02/02 01:35:54;;;;;;;8.93;3.17;;;;;;;6.31;nan;101108.53;5063948;28;20507;-82
2023/02/02 01:38:21;;;;;;;13.02;3.47;;;;;;;6.30;nan;101108.66;5059995;28;20497;-81
2023/02/02 01:40:52;;;;;;;8.82;3.30;;;;;;;6.26;nan;101105.41;5054560;28;20033;-81
2023/02/02 01:43:22;;;;;;;;;;;;;;;6.19;nan;101101.53;5049434;28;20047;-82
2023/02/02 01:45:48;;;;;;;13.90;3.45;;;;;;;6.16;nan;101102.59;5051076;28;19932;-82
2023/02/02 01:48:14;;;;;;;12.25;3.40;;;;;;;6.19;nan;101098.09;5070990;28;20040;-82
2023/02/02 01:50:40;;;;;;;12.13;2.78;;;;;;;6.17;nan;101098.19;5059970;28;20029;-83
2023/02/02 01:53:07;;;;;;;10.52;2.88;;;;;;;6.18;nan;101093.78;5045220;28;20043;-82
2023/02/02 01:55:34;;;;;;;15.88;2.83;;;;;;;6.19;nan;101095.47;5062428;28;20032;-82
2023/02/02 01:58:06;;;;;;;9.07;2.78;;;;;;;6.19;nan;101100.72;5052918;28;20135;-82
2023/02/02 02:00:31;;;;;;;12.80;3.00;;;;;;;6.23;nan;101104.81;5053570;28;20482;-82
2023/02/02 02:03:05;;;;;;;13.25;2.83;;;;;;;6.23;nan;101107.44;5065837;28;20079;-81
2023/02/02 02:05:37;;;;;;;12.73;2.90;;;;;;;6.23;nan;101110.91;5059367;28;20196;-82
2023/02/02 02:08:18;;;;;;;11.32;3.03;;;;;;;6.23;nan;101107.44;5070533;28;20043;-82
2023/02/02 02:10:44;;;;;;;14.55;3.22;;;;;;;6.25;nan;101108.16;5059148;28;20033;-81
2023/02/02 02:13:10;;;;;;;11.95;2.72;;;;;;;6.25;nan;101103.75;5038645;28;20048;-82
2023/02/02 02:18:50;;;;;;;10.52;3.15;;;;;;;6.28;nan;101108.78;5042794;28;20063;-82
2023/02/02 02:27:57;;;;;;;13.15;3.50;;;;;;;6.42;nan;101102.53;5042648;28;20055;-81
2023/02/02 02:30:53;;;;;;;11.57;3.40;;;;;;;6.53;nan;101107.84;5036334;28;20045;-82
2023/02/02 02:33:36;;;;;;;9.18;2.67;;;;;;;6.53;nan;101107.84;5033760;28;20433;-82
2023/02/02 02:36:26;;;;;;;10.90;2.88;;;;;;;6.63;nan;101109.81;5033187;28;20057;-82
2023/02/02 02:39:19;;;;;;;12.82;3.40;;;;;;;6.62;nan;101121.25;5040699;28;20056;-81
2023/02/02 02:41:49;;;;;;;9.68;3.00;;;;;;;6.57;nan;101122.44;5037478;28;20045;-82
2023/02/02 02:44:17;;;;;;;8.77;2.77;;;;;;;6.53;nan;101113.13;5046686;28;20037;-82
2023/02/02 02:46:43;;;;;;;10.65;3.03;;;;;;;6.46;nan;101109.25;5042967;28;20094;-82
2023/02/02 02:49:10;;;;;;;12.88;3.20;;;;;;;6.38;nan;101112.41;5032563;28;20044;-82
2023/02/02 02:51:40;;;;;;;15.68;3.20;;;;;;;6.36;nan;101114.34;5047689;28;20041;-81
2023/02/02 02:54:06;;;;;;;10.60;3.13;;;;;;;6.40;nan;101116.72;5036446;28;20561;-81
2023/02/02 02:56:40;;;;;;;11.52;3.22;;;;;;;6.39;nan;101118.53;5025200;28;20042;-81
2023/02/02 02:59:14;;;;;;;11.10;2.78;;;;;;;6.36;nan;101113.47;5029949;28;20037;-82
2023/02/02 03:01:54;;;;;;;10.57;2.70;;;;;;;6.37;nan;101118.63;5045186;28;20056;-81
2023/02/02 03:04:39;;;;;;;14.10;3.25;;;;;;;6.33;nan;101118.94;5038606;28;20036;-82
2023/02/02 03:07:19;;;;;;;11.90;3.42;;;;;;;6.35;nan;101117.06;5030286;28;20099;-82
2023/02/02 03:09:47;;;;;;;10.32;3.03;;;;;;;6.36;nan;101116.09;5026746;28;20068;-82
2023/02/02 03:12:15;;;;;;;13.48;3.03;;;;;;;6.33;nan;101116.31;5043078;28;20452;-82
2023/02/02 03:14:41;;;;;;;11.43;3.00;;;;;;;6.28;nan;101115.81;5030706;28;20537;-82
2023/02/02 03:17:06;;;;;;;9.20;3.08;;;;;;;6.27;nan;101111.50;5040268;28;20087;-82
2023/02/02 03:19:32;;;;;;;8.50;3.20;;;;;;;6.31;nan;101110.34;5048939;28;20036;-84
2023/02/02 03:21:57;;;;;;;10.07;2.80;;;;;;;6.27;nan;101119.38;5036161;28;20041;-82
2023/02/02 03:24:22;;;;;;;10.02;3.05;;;;;;;6.24;nan;101116.97;5039166;28;20127;-81
2023/02/02 03:26:48;;;;;;;13.00;3.55;;;;;;;6.23;nan;101117.94;5025422;28;20044;-82
2023/02/02 03:29:13;;;;;;;12.68;3.40;;;;;;;6.24;nan;101123.06;5034993;28;20132;-82
2023/02/02 03:31:39;;;;;;;10.73;3.15;;;;;;;6.25;nan;101121.28;5035388;28;20489;-82
2023/02/02 03:34:04;;;;;;;12.40;3.75;;;;;;;6.28;nan;101118.44;5054220;28;20044;-81
2023/02/02 03:36:29;;;;;;;11.05;3.20;;;;;;;6.35;nan;101114.44;5048156;28;20033;-83
2023/02/02 03:38:54;;;;;;;12.57;3.05;;;;;;;6.42;nan;101127.97;5029056;28;20049;-82
2023/02/02 03:41:20;;;;;;;11.82;2.85;;;;;;;6.53;nan;101130.63;5051182;28;20060;-82
2023/02/02 03:43:45;;;;;;;12.38;3.38;;;;;;;6.51;nan;101124.69;5044156;28;20485;-81
2023/02/02 03:46:10;;;;;;;9.10;2.92;;;;;;;6.41;nan;101129.72;5042978;28;20045;-82
2023/02/02 03:48:37;;;;;;;10.02;2.80;;;;;;;6.42;nan;101127.97;5042361;28;20049;-82
2023/02/02 03:51:11;;;;;;;11.73;3.17;;;;;;;6.36;nan;101122.22;5049420;28;20036;-82
2023/02/02 03:53:37;;;;;;;11.43;3.25;;;;;;;6.33;nan;101129.47;5045228;28;20037;-82
2023/02/02 03:56:02;;;;;;;9.05;2.67;;;;;;;6.27;nan;101135.13;5038810;28;20110;-82
2023/02/02 03:58:28;;;;;;;8.13;3.30;;;;;;;6.24;nan;101130.94;5047906;28;20033;-83
2023/02/02 04:00:54;;;;;;;8.43;2.83;;;;;;;6.21;nan;101132.97;5045933;28;20467;-83
2023/02/02 04:03:19;;;;;;;14.32;3.40;;;;;;;6.21;nan;101141.66;5049714;28;20041;-83
2023/02/02 04:05:48;;;;;;;11.27;3.15;;;;;;;6.18;nan;101141.06;5052698;28;20032;-82
2023/02/02 04:08:14;;;;;;;9.63;2.83;;;;;;;6.21;nan;101135.59;5039132;28;20034;-83
2023/02/02 04:10:41;;;;;;;9.57;2.72;;;;;;;6.23;nan;101137.16;5045061;28;20447;-82
2023/02/02 04:13:06;;;;;;;9.13;3.40;;;;;;;6.19;nan;101140.09;5039855;28;20075;-83
2023/02/02 04:15:32;;;;;;;8.02;2.88;;;;;;;6.14;nan;101143.88;5055310;28;20033;-82
2023/02/02 04:17:57;;;;;;;8.52;2.95;;;;;;;6.16;nan;101149.88;5046525;28;20044;-82
2023/02/02 04:20:22;;;;;;;10.93;3.10;;;;;;;6.20;nan;101137.38;5049969;28;20183;-83
2023/02/02 04:22:47;;;;;;;10.77;2.70;;;;;;;6.17;nan;101150.69;5039973;28;20025;-83
2023/02/02 04:25:13;;;;;;;11.77;3.40;;;;;;;6.14;nan;101150.94;5046220;28;20039;-82
2023/02/02 04:27:38;;;;;;;9.40;2.88;;;;;;;6.10;nan;101145.06;5051582;28;20051;-82
2023/02/02 04:30:04;;;;;;;9.45;3.08;;;;;;;6.12;nan;101156.28;5038859;28;20120;-82
2023/02/02 04:32:30;;;;;;;11.50;2.58;;;;;;;6.13;nan;101147.47;5050631;28;20033;-82
2023/02/02 04:34:55;;;;;;;8.35;2.58;;;;;;;6.14;nan;101141.25;5050933;28;20033;-82
2023/02/02 04:37:20;;;;;;;7.82;2.75;;;;;;;6.14;nan;101159.63;5043868;28;20046;-82
2023/02/02 04:39:47;;;;;;;10.55;3.15;;;;;;;6.12;nan;101156.28;5044462;28;20038;-82
2023/02/02 04:42:12;;;;;;;7.88;2.60;;;;;;;6.12;nan;101153.66;5040371;28;20038;-82
2023/02/02 04:44:38;;;;;;;4.82;2.00;;;;;;;6.11;nan;101146.72;5037398;28;20045;-82
2023/02/02 04:47:03;;;;;;;9.90;2.60;;;;;;;6.10;nan;101152.06;5044277;28;20423;-82
2023/02/02 04:49:29;;;;;;;11.18;2.95;;;;;;;6.08;nan;101160.09;5051745;28;20036;-82
2023/02/02 04:51:54;;;;;;;9.88;2.78;;;;;;;6.07;nan;101152.31;5051318;28;20041;-82
2023/02/02 04:54:20;;;;;;;10.77;3.10;;;;;;;6.10;nan;101152.06;5052062;28;20040;-82
2023/02/02 04:56:45;;;;;;;7.82;2.60;;;;;;;6.10;nan;101160.81;5042357;28;21072;-82
2023/02/02 04:59:11;;;;;;;10.43;2.92;;;;;;;6.08;nan;101149.59;5049869;28;20032;-82
2023/02/02 05:01:36;;;;;;;9.80;2.70;;;;;;;6.10;nan;101147.69;5033473;28;20551;-82
2023/02/02 05:04:01;;;;;;;11.95;3.38;;;;;;;6.13;nan;101157.13;5043648;28;20063;-82
2023/02/02 05:06:26;;;;;;;9.95;2.60;;;;;;;6.11;nan;101157.22;5043100;28;20102;-82
2023/02/02 05:08:52;;;;;;;10.77;2.67;;;;;;;6.12;nan;101172.03;5037576;28;20035;-82
2023/02/02 05:11:19;;;;;;;10.73;2.78;;;;;;;6.14;nan;101164.88;5050002;28;20136;-82
2023/02/02 05:13:51;;;;;;;6.05;2.08;;;;;;;6.18;nan;101167.31;5049853;28;20041;-82
2023/02/02 05:16:17;;;;;;;7.50;2.40;;;;;;;6.22;nan;101166.13;5049796;28;20041;-82
2023/02/02 05:18:42;;;;;;;8.95;2.88;;;;;;;6.28;nan;101181.47;5041818;28;20025;-82
2023/02/02 05:21:08;;;;;;;8.20;2.50;;;;;;;6.37;nan;101180.84;5052426;28;20091;-82
2023/02/02 05:23:33;;;;;;;11.18;2.90;;;;;;;6.38;nan;101180.69;5043981;28;20428;-82
2023/02/02 05:25:58;;;;;;;9.13;3.00;;;;;;;6.46;nan;101189.84;5035697;28;20479;-82
2023/02/02 05:28:24;;;;;;;9.82;3.05;;;;;;;6.49;nan;101190.47;5044401;28;20043;-82
2023/02/02 05:30:50;;;;;;;7.88;2.40;;;;;;;6.54;nan;101177.84;5044637;28;20527;-82
2023/02/02 05:33:17;;;;;;;8.82;2.03;;;;;;;6.57;nan;101190.75;5048318;28;20033;-82
2023/02/02 05:35:44;;;;;;;8.25;2.53;;;;;;;6.56;nan;101185.63;5042378;28;20033;-83
2023/02/02 05:38:09;;;;;;;8.68;2.63;;;;;;;6.51;nan;101188.56;5044398;28;20138;-82
2023/02/02 05:40:34;;;;;;;8.52;2.30;;;;;;;6.45;nan;101191.63;5032552;28;20053;-82
2023/02/02 05:43:00;;;;;;;7.70;2.42;;;;;;;6.50;nan;101189.50;5047774;28;20115;-82
2023/02/02 05:45:25;;;;;;;9.55;2.65;;;;;;;6.53;nan;101191.06;5044384;28;20045;-82
2023/02/02 05:47:54;;;;;;;7.15;2.28;;;;;;;6.56;nan;101186.44;5040706;28;20444;-82
2023/02/02 05:50:19;;;;;;;10.02;2.47;;;;;;;6.58;nan;101202.94;5049214;28;20040;-82
2023/02/02 05:52:46;;;;;;;8.23;2.55;;;;;;;6.66;nan;101210.28;5041821;28;20099;-81
2023/02/02 05:55:11;;;;;;;9.68;2.67;;;;;;;6.65;nan;101206.00;5037769;28;20064;-82
2023/02/02 05:57:36;;;;;;;7.10;2.08;;;;;;;6.70;nan;101200.41;5036900;28;20061;-82
2023/02/02 06:00:05;;;;;;;7.65;2.50;;;;;;;6.75;nan;101203.53;5032020;28;20583;-82
2023/02/02 06:02:31;;;;;;;6.50;2.30;;;;;;;6.74;nan;101207.94;5027734;28;20834;-82
2023/02/02 06:04:56;;;;;;;6.82;1.77;;;;;;;6.72;nan;101203.75;5043440;28;20025;-81
2023/02/02 06:07:21;;;;;;;6.28;2.17;;;;;;;6.73;nan;101216.78;5049648;28;20036;-81
2023/02/02 06:09:47;;;;;;;8.63;2.30;;;;;;;6.79;nan;101210.22;5045438;28;20033;-82
2023/02/02 06:12:12;;;;;;;9.40;2.78;;;;;;;6.79;nan;101197.94;5037581;28;20057;-81
2023/02/02 06:14:37;;;;;;;7.82;2.90;;;;;;;6.79;nan;101204.97;5039406;28;20043;-82
2023/02/02 06:17:02;;;;;;;8.23;2.83;;;;;;;6.77;nan;101215.63;5044189;28;20725;-82
2023/02/02 06:19:28;;;;;;;7.75;2.50;;;;;;;6.83;nan;101218.75;5049342;28;20153;-81
2023/02/02 06:21:53;;;;;;;6.60;2.60;;;;;;;6.85;nan;101214.22;5037634;28;20041;-82
2023/02/02 06:24:18;;;;;;;5.05;2.30;;;;;;;6.81;nan;101210.97;5031357;28;20037;-83
2023/02/02 06:26:43;;;;;;;10.23;2.60;;;;;;;6.75;nan;101220.16;5048678;28;20041;-81
2023/02/02 06:29:12;;;;;;;5.43;2.35;;;;;;;6.66;nan;101228.69;5041227;28;20524;-82
2023/02/02 06:31:38;;;;;;;11.73;3.42;;;;;;;6.68;nan;101224.16;5048680;28;20159;-83
2023/02/02 06:34:03;;;;;;;5.95;2.22;;;;;;;6.66;nan;101230.47;5044001;28;20108;-83
2023/02/02 06:36:28;;;;;;;5.82;2.30;;;;;;;6.68;nan;101229.41;5032412;28;20119;-82
2023/02/02 06:38:55;;;;;;;10.15;2.85;;;;;;;6.66;nan;101235.72;5041982;28;20041;-83
2023/02/02 06:41:21;;;;;;;9.82;3.03;;;;;;;6.75;nan;101230.66;5040688;28;20033;-83
2023/02/02 06:43:47;;;;;;;9.00;3.15;;;;;;;6.79;nan;101233.88;5040538;28;20064;-83
2023/02/02 06:46:13;;;;;;;8.00;2.55;;;;;;;6.80;nan;101231.16;5045643;28;20036;-82
2023/02/02 06:48:39;;;;;;;6.20;2.50;;;;;;;6.84;nan;101223.91;5051853;28;20381;-83
2023/02/02 06:51:04;;;;;;;7.57;2.50;;;;;;;6.81;nan;101234.63;5040237;28;20047;-82
2023/02/02 06:53:31;;;;;;;9.02;3.00;;;;;;;6.81;nan;101235.44;5057320;28;20028;-83
2023/02/02 06:56:01;;;;;;;8.15;2.80;;;;;;;6.87;nan;101233.38;5057467;28;20119;-82
2023/02/02 06:58:27;;;;;;;8.45;2.67;;;;;;;6.86;nan;101229.88;5049935;28;20033;-83
2023/02/02 07:00:53;;;;;;;8.85;2.75;;;;;;;6.86;nan;101231.66;5047586;28;20037;-84
2023/02/02 07:03:20;;;;;;;7.57;2.60;;;;;;;6.83;nan;101235.34;5057824;28;20029;-83
2023/02/02 07:05:46;;;;;;;7.20;2.88;;;;;;;6.91;nan;101234.78;5042919;28;20068;-83
2023/02/02 07:08:11;;;;;;;7.22;3.13;;;;;;;6.89;nan;101241.94;5048881;28;20119;-83
2023/02/02 07:10:37;;;;;;;10.45;3.42;;;;;;;6.87;nan;101233.38;5055544;28;20052;-83
2023/02/02 07:13:03;;;;;;;7.32;2.30;;;;;;;6.91;nan;101245.31;5053358;28;20037;-82
2023/02/02 07:15:29;;;;;;;9.27;2.50;;;;;;;6.93;nan;101239.00;5041083;28;20052;-83
2023/02/02 07:17:54;;;;;;;6.35;2.53;;;;;;;6.94;nan;101230.16;5053554;28;20049;-84
2023/02/02 07:20:19;;;;;;;5.47;2.10;;;;;;;6.94;nan;101226.72;5045739;28;20041;-83
2023/02/02 07:22:44;;;;;;;8.40;2.85;;;;;;;6.94;nan;101235.44;5055236;28;20438;-83
2023/02/02 07:25:10;;;;;;;7.93;2.42;;;;;;;6.93;nan;101246.88;5042609;28;20044;-83
2023/02/02 07:27:35;;;;;;;7.07;2.65;;;;;;;6.95;nan;101247.63;5051826;28;20033;-83
2023/02/02 07:30:01;;;;;;;9.95;2.55;;;;;;;7.01;nan;101251.63;5049652;28;20040;-83
2023/02/02 07:32:26;;;;;;;8.57;2.72;;;;;;;7.05;nan;101255.69;5055185;28;20036;-83
2023/02/02 07:34:51;;;;;;;9.40;2.45;;;;;;;7.00;nan;101258.63;5044118;28;20037;-82
2023/02/02 07:37:17;;;;;;;9.35;2.72;;;;;;;7.06;nan;101254.75;5052877;28;20442;-84
2023/02/02 07:39:42;;;;;;;11.45;2.55;;;;;;;6.97;nan;101258.03;5053439;28;20037;-84
2023/02/02 07:42:13;;;;;;;9.95;2.80;;;;;;;7.01;nan;101262.97;5055876;28;20063;-83
2023/02/02 07:44:38;;;;;;;;;;;;;;;6.98;nan;101271.09;5055135;28;20033;-83
2023/02/02 07:47:04;;;;;;;9.17;3.37;;;;;;;7.03;nan;101268.09;5047462;28;19944;-82
2023/02/02 07:49:29;;;;;;;8.25;3.00;;;;;;;7.04;nan;101275.03;5049297;28;20386;-83
2023/02/02 07:51:55;;;;;;;10.05;3.03;;;;;;;6.96;nan;101270.34;5057478;28;20583;-83
2023/02/02 07:54:20;;;;;;;8.98;3.17;;;;;;;7.01;nan;101277.91;5053811;28;20041;-83
2023/02/02 07:56:45;;;;;;;10.45;3.00;;;;;;;7.05;nan;101276.72;5055928;28;20025;-83
2023/02/02 07:59:11;;;;;;;7.18;2.38;;;;;;;7.05;nan;101275.88;5056169;28;20524;-83
2023/02/02 08:01:36;;;;;;;8.75;3.00;;;;;;;7.13;nan;101278.81;5058208;28;20036;-83
2023/02/02 08:04:02;;;;;;;7.38;2.20;;;;;;;7.15;nan;101269.84;5046742;28;20030;-84
2023/02/02 08:06:30;;;;;;;6.63;2.55;;;;;;;7.21;nan;101272.03;5053153;28;20029;-83
2023/02/02 08:08:57;;;;;;;7.93;3.15;;;;;;;7.28;nan;101282.13;5056040;28;20063;-83
2023/02/02 08:11:24;;;;;;;9.93;2.45;;;;;;;7.21;nan;101281.72;5057977;28;20037;-83
2023/02/02 08:13:51;;;;;;;10.65;2.88;;;;;;;7.24;nan;101292.00;5048268;28;20033;-83
2023/02/02 08:16:17;;;;;;;8.15;2.60;;;;;;;7.28;nan;101293.47;5052281;28;20053;-84
2023/02/02 08:18:42;;;;;;;10.18;3.20;;;;;;;7.25;nan;101296.34;5047397;28;20404;-83
2023/02/02 08:21:08;;;;;;;9.90;3.00;;;;;;;7.32;nan;101300.19;5056518;28;20040;-83
2023/02/02 08:23:35;;;;;;;9.20;3.00;;;;;;;7.36;nan;101296.38;5051265;28;20017;-82
2023/02/02 08:26:05;;;;;;;12.00;3.63;;;;;;;7.31;nan;101301.13;5041571;28;20037;-82
2023/02/02 08:28:30;;;;;;;9.25;2.92;;;;;;;7.33;nan;101295.78;5038274;28;20034;-83
2023/02/02 08:30:55;;;;;;;5.68;2.35;;;;;;;7.36;nan;101301.63;5048791;28;20033;-83
2023/02/02 08:33:21;;;;;;;7.82;2.60;;;;;;;7.41;nan;101303.94;5053552;28;20045;-85
2023/02/02 08:35:46;;;;;;;12.00;2.80;;;;;;;7.38;nan;101305.00;5046341;28;20481;-82
2023/02/02 08:38:11;;;;;;;7.10;2.40;;;;;;;7.43;nan;101305.50;5046334;28;20033;-85
2023/02/02 08:40:37;;;;;;;8.20;2.85;;;;;;;7.45;nan;101305.41;5037876;28;20034;-82
2023/02/02 08:43:02;;;;;;;6.93;2.55;;;;;;;7.48;nan;101304.31;5039867;28;20053;-85
2023/02/02 08:45:28;;;;;;;7.75;2.70;;;;;;;7.56;nan;101300.19;5047691;28;20048;-83
2023/02/02 08:47:54;;;;;;;7.18;2.45;;;;;;;7.57;nan;101307.13;5045770;28;20042;-82
2023/02/02 08:50:19;;;;;;;8.88;2.72;;;;;;;7.55;nan;101314.28;5041670;28;20045;-83
2023/02/02 08:52:44;;;;;;;8.30;3.00;;;;;;;7.60;nan;101311.31;5043234;28;20068;-82
2023/02/02 08:55:10;;;;;;;7.47;2.55;;;;;;;7.62;nan;101318.13;5052337;28;20037;-83
2023/02/02 08:57:35;;;;;;;6.00;2.40;;;;;;;7.68;nan;101308.97;5050559;28;20412;-83
2023/02/02 09:00:03;;;;;;;6.68;2.45;;;;;;;7.78;nan;101317.03;5052754;28;20068;-83
2023/02/02 09:02:29;;;;;;;9.05;2.45;;;;;;;7.74;nan;101323.47;5056290;28;20033;-83
2023/02/02 09:04:54;;;;;;;6.75;2.15;;;;;;;7.77;nan;101320.59;5054671;28;20105;-83
2023/02/02 09:07:19;;;;;;;9.23;2.80;;;;;;;7.81;nan;101319.41;5036568;28;20037;-83
2023/02/02 09:09:44;;;;;;;6.72;2.20;;;;;;;7.84;nan;101322.69;5038124;28;20064;-83
2023/02/02 09:12:10;;;;;;;8.65;2.53;;;;;;;7.92;nan;101321.25;5054886;28;20131;-83
2023/02/02 09:14:35;;;;;;;7.82;2.40;;;;;;;7.96;nan;101322.69;5054891;28;20033;-83
2023/02/02 09:17:00;;;;;;;7.25;2.20;;;;;;;7.93;nan;101320.28;5050861;28;20134;-82
2023/02/02 09:19:25;;;;;;;8.73;2.80;;;;;;;7.92;nan;101335.25;5052517;28;20044;-83
2023/02/02 09:21:51;;;;;;;7.80;2.70;;;;;;;7.97;nan;101332.28;5051273;28;20051;-82
2023/02/02 09:24:16;;;;;;;11.70;2.83;;;;;;;7.86;nan;101327.81;5040845;28;20037;-85
2023/02/02 09:26:43;;;;;;;8.95;2.50;;;;;;;7.97;nan;101330.50;5046905;28;20558;-85
2023/02/02 09:29:14;;;;;;;6.97;2.50;;;;;;;8.01;nan;101325.84;5053109;28;20029;-85
2023/02/02 09:31:39;;;;;;;11.40;3.08;;;;;;;8.05;nan;101325.47;5044784;28;20386;-85
2023/02/02 09:34:08;;;;;;;6.68;2.20;;;;;;;8.12;nan;101314.47;5040153;28;20060;-85
2023/02/02 09:36:33;;;;;;;7.65;2.70;;;;;;;8.12;nan;101332.94;5051862;28;20040;-85
2023/02/02 09:38:59;;;;;;;9.25;2.67;;;;;;;8.08;nan;101327.91;5032525;28;20037;-84
2023/02/02 09:41:36;;;;;;;6.88;2.17;;;;;;;8.14;nan;101329.22;5030381;28;20058;-82
2023/02/02 09:44:19;;;;;;;6.93;2.25;;;;;;;8.15;nan;101328.28;5054482;28;20082;-82
2023/02/02 09:47:20;;;;;;;7.20;2.20;;;;;;;8.22;nan;101334.75;5046815;28;20098;-83
2023/02/02 09:50:01;;;;;;;9.07;2.57;;;;;;;8.22;nan;101334.75;5053782;28;20037;-84
2023/02/02 09:52:38;;;;;;;6.07;2.17;;;;;;;8.22;nan;101336.53;5057231;28;22631;-85
2023/02/02 09:55:12;;;;;;;7.25;2.72;;;;;;;8.15;nan;101343.22;5064479;28;20275;-84
2023/02/02 09:57:52;;;;;;;9.38;2.35;;;;;;;8.22;nan;101340.03;5064975;28;20056;-85
2023/02/02 10:00:38;;;;;;;8.73;2.20;;;;;;;8.13;nan;101350.41;5063322;28;20040;-86
2023/02/02 10:03:13;;;;;;;9.38;2.63;;;;;;;8.13;nan;101340.72;5033698;22;20556;-87
2023/02/02 10:05:54;;;;;;;8.50;2.72;;;;;;;8.14;nan;101346.81;5029897;28;20122;-86
2023/02/02 10:08:27;;;;;;;6.70;2.53;;;;;;;8.15;nan;101348.50;5008870;28;20034;-86
2023/02/02 10:10:53;;;;;;;7.03;2.45;;;;;;;8.22;nan;101353.19;4996061;28;20065;-86
2023/02/02 10:13:25;;;;;;;5.07;1.73;;;;;;;8.26;nan;101349.34;4997423;28;20068;-86
2023/02/02 10:16:00;;;;;;;7.13;2.40;;;;;;;8.25;nan;101358.22;5002712;28;20077;-87
2023/02/02 10:18:40;;;;;;;8.38;2.70;;;;;;;8.27;nan;101361.59;4999230;28;20034;-87
2023/02/02 10:21:23;;;;;;;6.93;2.13;;;;;;;8.27;nan;101369.50;4990995;28;20125;-87
2023/02/02 10:23:48;;;;;;;9.57;2.78;;;;;;;8.29;nan;101370.22;4996022;28;20634;-86
2023/02/02 10:26:20;;;;;;;13.57;3.08;;;;;;;8.16;nan;101380.00;5011393;28;20057;-86
2023/02/02 10:29:14;;;;;;;8.00;2.28;;;;;;;8.22;nan;101379.56;5014240;28;20042;-87
2023/02/02 10:31:57;;;;;;;8.85;2.28;;;;;;;8.17;nan;101381.66;5012227;28;20100;-86
2023/02/02 10:34:31;;;;;;;7.82;2.30;;;;;;;8.16;nan;101376.53;5024249;28;20494;-87
2023/02/02 10:37:06;;;;;;;7.40;2.40;;;;;;;8.25;nan;101365.31;5021379;28;20053;-86
2023/02/02 10:39:40;;;;;;;7.35;2.17;;;;;;;8.20;nan;101380.59;5015406;28;20125;-87
2023/02/02 10:42:31;;;;;;;9.00;2.10;;;;;;;8.23;nan;101383.00;5014225;28;20516;-86
2023/02/02 10:45:01;;;;;;;9.00;2.60;;;;;;;8.20;nan;101384.09;5004280;28;20126;-85
2023/02/02 10:47:30;;;;;;;6.63;2.05;;;;;;;8.19;nan;101378.94;5005411;28;20042;-86
2023/02/02 10:50:03;;;;;;;10.63;2.28;;;;;;;8.17;nan;101372.94;5014414;28;20040;-88
2023/02/02 10:52:32;;;;;;;6.82;1.98;;;;;;;8.20;nan;101389.38;5005343;28;20117;-87
2023/02/02 10:55:29;;;;;;;7.40;2.13;;;;;;;8.24;nan;101385.50;5015754;28;20048;-86
2023/02/02 10:58:06;;;;;;;11.55;2.60;;;;;;;8.19;nan;101387.66;5004334;28;20081;-86
2023/02/02 11:00:45;;;;;;;4.90;1.90;;;;;;;8.22;nan;101386.59;5005677;28;20527;-86
2023/02/02 11:03:12;;;;;;;7.65;1.90;;;;;;;8.17;nan;101392.19;5015252;28;20050;-87
2023/02/02 11:08:44;;;;;;;6.43;2.10;;;;;;;8.16;nan;101387.06;5013402;28;20061;-86
2023/02/02 11:11:25;;;;;;;9.18;2.20;;;;;;;8.21;nan;101391.03;5034240;28;20110;-86
2023/02/02 11:13:58;;;;;;;8.13;2.10;;;;;;;8.28;nan;101386.13;5029081;28;20048;-89
2023/02/02 11:16:31;;;;;;;5.70;2.15;;;;;;;8.31;nan;101388.53;5037899;28;20026;-86
2023/02/02 11:18:57;;;;;;;8.93;1.70;;;;;;;8.29;nan;101386.03;5021422;28;20102;-86
2023/02/02 11:21:30;;;;;;;6.32;2.10;;;;;;;8.32;nan;101377.06;5032635;28;20037;-88
2023/02/02 11:24:20;;;;;;;10.45;2.45;;;;;;;8.38;nan;101373.94;5021319;28;20044;-86
2023/02/02 11:26:53;;;;;;;7.93;2.33;;;;;;;8.38;nan;101373.94;5011271;28;20168;-86
2023/02/02 11:29:26;;;;;;;9.60;3.08;;;;;;;8.44;nan;101370.03;5010606;28;20030;-86
2023/02/02 11:31:52;;;;;;;13.43;5.63;;;;;;;8.45;nan;101376.97;5008659;28;20124;-86
2023/02/02 11:34:23;;;;;;;7.82;3.13;;;;;;;8.56;nan;101384.09;5007940;28;20176;-86
2023/02/02 11:37:12;;;;;;;;;;;;;;;8.52;nan;101378.19;5020635;28;20125;-87
2023/02/02 11:39:39;;;;;;;8.32;2.13;;;;;;;8.63;nan;101386.13;5021581;28;19914;-87
2023/02/02 11:42:15;;;;;;;5.97;2.47;;;;;;;8.63;nan;101375.59;5015796;28;20025;-86
2023/02/02 11:44:44;;;;;;;7.13;1.92;;;;;;;8.55;nan;101372.69;5017000;28;20507;-87
2023/02/02 11:47:19;;;;;;;7.57;2.22;;;;;;;8.59;nan;101373.31;5016973;28;20041;-87
2023/02/02 11:49:44;;;;;;;6.63;1.75;;;;;;;8.52;nan;101370.28;5013161;28;20140;-86
2023/02/02 11:52:19;;;;;;;9.38;2.40;;;;;;;8.64;nan;101368.50;5011620;28;20141;-86
2023/02/02 11:54:49;;;;;;;8.00;2.20;;;;;;;8.68;nan;101369.97;5011864;28;20073;-86
2023/02/02 11:57:20;;;;;;;7.20;1.85;;;;;;;8.61;nan;101369.59;5016208;28;20072;-87
2023/02/02 11:59:48;;;;;;;6.53;2.10;;;;;;;8.68;nan;101354.13;5014657;28;20042;-87
2023/02/02 12:02:22;;;;;;;7.88;3.05;;;;;;;8.84;nan;101351.13;5010831;28;20034;-87
2023/02/02 12:04:51;;;;;;;9.30;2.92;;;;;;;8.91;nan;101355.81;5011791;28;20462;-86
2023/02/02 12:07:24;;;;;;;5.38;1.90;;;;;;;9.04;nan;101354.84;5019438;28;20054;-87
2023/02/02 12:09:50;;;;;;;9.00;2.65;;;;;;;9.12;nan;101349.78;5011267;28;20038;-87
2023/02/02 12:12:26;;;;;;;7.00;2.10;;;;;;;9.14;nan;101356.63;5011036;28;20083;-87